sensor_id;sensor_type;location;lat;lon;timestamp;P1;durP1;ratioP1;P2;durP2;ratioP2
16642;SDS011;8435;52.184;5.406;2022-09-30T00:00:46;10.60;;;9.60;;
16642;SDS011;8435;52.184;5.406;2022-09-30T00:03:13;10.27;;;9.30;;
16642;SDS011;8435;52.184;5.406;2022-09-30T00:05:40;9.57;;;8.57;;
16642;SDS011;8435;52.184;5.406;2022-09-30T00:08:07;10.40;;;9.13;;
16642;SDS011;8435;52.184;5.406;2022-09-30T00:10:34;10.13;;;9.13;;
16642;SDS011;8435;52.184;5.406;2022-09-30T00:13:03;10.43;;;9.43;;
16642;SDS011;8435;52.184;5.406;2022-09-30T00:15:32;9.90;;;9.00;;
16642;SDS011;8435;52.184;5.406;2022-09-30T00:18:01;10.10;;;9.20;;
16642;SDS011;8435;52.184;5.406;2022-09-30T00:20:28;11.00;;;10.00;;
16642;SDS011;8435;52.184;5.406;2022-09-30T00:23:00;9.60;;;8.70;;
16642;SDS011;8435;52.184;5.406;2022-09-30T00:25:26;9.33;;;8.43;;
16642;SDS011;8435;52.184;5.406;2022-09-30T00:28:07;8.53;;;7.70;;
16642;SDS011;8435;52.184;5.406;2022-09-30T00:30:34;8.47;;;7.67;;
16642;SDS011;8435;52.184;5.406;2022-09-30T00:33:06;8.07;;;7.33;;
16642;SDS011;8435;52.184;5.406;2022-09-30T00:35:33;8.60;;;7.70;;
16642;SDS011;8435;52.184;5.406;2022-09-30T00:38:02;8.43;;;7.63;;
16642;SDS011;8435;52.184;5.406;2022-09-30T00:40:29;7.73;;;7.03;;
16642;SDS011;8435;52.184;5.406;2022-09-30T00:42:56;7.47;;;6.77;;
16642;SDS011;8435;52.184;5.406;2022-09-30T00:45:24;8.90;;;7.30;;
16642;SDS011;8435;52.184;5.406;2022-09-30T00:47:54;7.67;;;6.87;;
16642;SDS011;8435;52.184;5.406;2022-09-30T00:50:28;7.07;;;6.37;;
16642;SDS011;8435;52.184;5.406;2022-09-30T00:53:11;8.50;;;7.57;;
16642;SDS011;8435;52.184;5.406;2022-09-30T00:55:46;7.30;;;6.60;;
16642;SDS011;8435;52.184;5.406;2022-09-30T00:58:17;8.37;;;7.50;;
16642;SDS011;8435;52.184;5.406;2022-09-30T01:00:48;8.00;;;7.20;;
16642;SDS011;8435;52.184;5.406;2022-09-30T01:03:19;7.50;;;6.80;;
16642;SDS011;8435;52.184;5.406;2022-09-30T01:05:51;7.53;;;6.73;;
16642;SDS011;8435;52.184;5.406;2022-09-30T01:08:19;6.37;;;5.77;;
16642;SDS011;8435;52.184;5.406;2022-09-30T01:10:47;6.90;;;6.30;;
16642;SDS011;8435;52.184;5.406;2022-09-30T01:13:14;6.70;;;5.97;;
16642;SDS011;8435;52.184;5.406;2022-09-30T01:15:47;6.77;;;6.07;;
16642;SDS011;8435;52.184;5.406;2022-09-30T01:18:25;7.53;;;5.37;;
16642;SDS011;8435;52.184;5.406;2022-09-30T01:21:17;6.13;;;5.53;;
16642;SDS011;8435;52.184;5.406;2022-09-30T01:24:13;6.47;;;5.80;;
16642;SDS011;8435;52.184;5.406;2022-09-30T01:27:04;5.77;;;5.23;;
16642;SDS011;8435;52.184;5.406;2022-09-30T01:29:48;5.87;;;5.27;;
16642;SDS011;8435;52.184;5.406;2022-09-30T01:32:35;5.80;;;5.30;;
16642;SDS011;8435;52.184;5.406;2022-09-30T01:35:15;5.60;;;4.50;;
16642;SDS011;8435;52.184;5.406;2022-09-30T01:37:58;4.37;;;3.97;;
16642;SDS011;8435;52.184;5.406;2022-09-30T01:40:42;4.13;;;3.80;;
16642;SDS011;8435;52.184;5.406;2022-09-30T01:43:13;4.83;;;4.33;;
16642;SDS011;8435;52.184;5.406;2022-09-30T01:45:53;5.87;;;4.57;;
16642;SDS011;8435;52.184;5.406;2022-09-30T01:48:26;4.80;;;4.27;;
16642;SDS011;8435;52.184;5.406;2022-09-30T01:51:10;4.80;;;4.33;;
16642;SDS011;8435;52.184;5.406;2022-09-30T01:53:44;4.00;;;3.60;;
16642;SDS011;8435;52.184;5.406;2022-09-30T01:56:16;4.83;;;3.80;;
16642;SDS011;8435;52.184;5.406;2022-09-30T01:58:47;4.80;;;4.30;;
16642;SDS011;8435;52.184;5.406;2022-09-30T02:01:20;4.50;;;4.10;;
16642;SDS011;8435;52.184;5.406;2022-09-30T02:03:54;4.50;;;3.60;;
16642;SDS011;8435;52.184;5.406;2022-09-30T02:06:25;3.93;;;3.63;;
16642;SDS011;8435;52.184;5.406;2022-09-30T02:08:56;4.03;;;3.73;;
16642;SDS011;8435;52.184;5.406;2022-09-30T02:11:27;4.03;;;3.70;;
16642;SDS011;8435;52.184;5.406;2022-09-30T02:13:59;4.93;;;4.47;;
16642;SDS011;8435;52.184;5.406;2022-09-30T02:16:31;3.50;;;3.20;;
16642;SDS011;8435;52.184;5.406;2022-09-30T02:19:09;3.53;;;3.33;;
16642;SDS011;8435;52.184;5.406;2022-09-30T02:21:42;3.50;;;3.20;;
16642;SDS011;8435;52.184;5.406;2022-09-30T02:24:13;3.30;;;3.00;;
16642;SDS011;8435;52.184;5.406;2022-09-30T02:26:49;3.57;;;3.27;;
16642;SDS011;8435;52.184;5.406;2022-09-30T02:29:22;3.50;;;3.20;;
16642;SDS011;8435;52.184;5.406;2022-09-30T02:31:54;3.60;;;3.20;;
16642;SDS011;8435;52.184;5.406;2022-09-30T02:34:26;3.20;;;2.90;;
16642;SDS011;8435;52.184;5.406;2022-09-30T02:36:59;3.33;;;3.03;;
16642;SDS011;8435;52.184;5.406;2022-09-30T02:39:30;3.60;;;3.00;;
16642;SDS011;8435;52.184;5.406;2022-09-30T02:42:05;4.37;;;2.93;;
16642;SDS011;8435;52.184;5.406;2022-09-30T02:44:37;2.93;;;2.63;;
16642;SDS011;8435;52.184;5.406;2022-09-30T02:47:08;3.47;;;2.73;;
16642;SDS011;8435;52.184;5.406;2022-09-30T02:49:41;2.87;;;2.67;;
16642;SDS011;8435;52.184;5.406;2022-09-30T02:52:21;3.00;;;2.70;;
16642;SDS011;8435;52.184;5.406;2022-09-30T02:54:58;2.90;;;2.70;;
16642;SDS011;8435;52.184;5.406;2022-09-30T02:57:37;3.20;;;2.87;;
16642;SDS011;8435;52.184;5.406;2022-09-30T03:00:13;4.13;;;2.87;;
16642;SDS011;8435;52.184;5.406;2022-09-30T03:02:40;2.97;;;2.77;;
16642;SDS011;8435;52.184;5.406;2022-09-30T03:05:11;2.73;;;2.53;;
16642;SDS011;8435;52.184;5.406;2022-09-30T03:07:38;3.63;;;2.63;;
16642;SDS011;8435;52.184;5.406;2022-09-30T03:10:10;3.13;;;2.77;;
16642;SDS011;8435;52.184;5.406;2022-09-30T03:12:56;3.17;;;2.87;;
16642;SDS011;8435;52.184;5.406;2022-09-30T03:15:45;3.00;;;2.80;;
16642;SDS011;8435;52.184;5.406;2022-09-30T03:18:37;2.47;;;2.30;;
16642;SDS011;8435;52.184;5.406;2022-09-30T03:21:24;2.70;;;2.50;;
16642;SDS011;8435;52.184;5.406;2022-09-30T03:26:59;2.87;;;2.63;;
16642;SDS011;8435;52.184;5.406;2022-09-30T03:29:44;2.80;;;2.60;;
16642;SDS011;8435;52.184;5.406;2022-09-30T03:32:19;3.47;;;2.60;;
16642;SDS011;8435;52.184;5.406;2022-09-30T03:34:59;3.00;;;2.80;;
16642;SDS011;8435;52.184;5.406;2022-09-30T03:37:38;2.63;;;2.43;;
16642;SDS011;8435;52.184;5.406;2022-09-30T03:40:15;2.57;;;2.37;;
16642;SDS011;8435;52.184;5.406;2022-09-30T03:42:53;2.97;;;2.77;;
16642;SDS011;8435;52.184;5.406;2022-09-30T03:45:28;3.40;;;3.13;;
16642;SDS011;8435;52.184;5.406;2022-09-30T03:48:00;2.87;;;2.67;;
16642;SDS011;8435;52.184;5.406;2022-09-30T03:50:30;4.20;;;2.43;;
16642;SDS011;8435;52.184;5.406;2022-09-30T03:53:05;3.23;;;3.03;;
16642;SDS011;8435;52.184;5.406;2022-09-30T03:55:42;3.73;;;2.50;;
16642;SDS011;8435;52.184;5.406;2022-09-30T03:58:25;3.33;;;2.97;;
16642;SDS011;8435;52.184;5.406;2022-09-30T04:00:52;3.67;;;2.90;;
16642;SDS011;8435;52.184;5.406;2022-09-30T04:03:23;3.20;;;3.00;;
16642;SDS011;8435;52.184;5.406;2022-09-30T04:05:52;3.00;;;2.80;;
16642;SDS011;8435;52.184;5.406;2022-09-30T04:08:20;3.20;;;3.00;;
16642;SDS011;8435;52.184;5.406;2022-09-30T04:10:48;3.47;;;3.17;;
16642;SDS011;8435;52.184;5.406;2022-09-30T04:13:15;3.27;;;3.00;;
16642;SDS011;8435;52.184;5.406;2022-09-30T04:15:42;3.53;;;3.23;;
16642;SDS011;8435;52.184;5.406;2022-09-30T04:18:09;3.60;;;3.30;;
16642;SDS011;8435;52.184;5.406;2022-09-30T04:20:39;3.30;;;3.10;;
16642;SDS011;8435;52.184;5.406;2022-09-30T04:23:08;4.00;;;3.60;;
16642;SDS011;8435;52.184;5.406;2022-09-30T04:25:36;4.37;;;3.97;;
16642;SDS011;8435;52.184;5.406;2022-09-30T04:28:03;3.77;;;3.53;;
16642;SDS011;8435;52.184;5.406;2022-09-30T04:30:30;4.33;;;4.03;;
16642;SDS011;8435;52.184;5.406;2022-09-30T04:32:57;4.03;;;3.73;;
16642;SDS011;8435;52.184;5.406;2022-09-30T04:35:24;4.13;;;3.83;;
16642;SDS011;8435;52.184;5.406;2022-09-30T04:37:54;4.90;;;4.50;;
16642;SDS011;8435;52.184;5.406;2022-09-30T04:40:26;4.30;;;4.00;;
16642;SDS011;8435;52.184;5.406;2022-09-30T04:42:56;4.33;;;4.03;;
16642;SDS011;8435;52.184;5.406;2022-09-30T04:45:25;5.13;;;4.23;;
16642;SDS011;8435;52.184;5.406;2022-09-30T04:47:54;5.10;;;4.60;;
16642;SDS011;8435;52.184;5.406;2022-09-30T04:50:24;4.67;;;4.27;;
16642;SDS011;8435;52.184;5.406;2022-09-30T04:52:52;4.80;;;4.40;;
16642;SDS011;8435;52.184;5.406;2022-09-30T04:55:23;5.00;;;4.50;;
16642;SDS011;8435;52.184;5.406;2022-09-30T04:57:50;4.97;;;4.57;;
16642;SDS011;8435;52.184;5.406;2022-09-30T05:00:18;5.10;;;4.70;;
16642;SDS011;8435;52.184;5.406;2022-09-30T05:02:45;5.40;;;4.33;;
16642;SDS011;8435;52.184;5.406;2022-09-30T05:05:12;5.00;;;4.53;;
16642;SDS011;8435;52.184;5.406;2022-09-30T05:07:39;7.03;;;5.00;;
16642;SDS011;8435;52.184;5.406;2022-09-30T05:10:07;4.93;;;4.37;;
16642;SDS011;8435;52.184;5.406;2022-09-30T05:12:35;5.90;;;5.40;;
16642;SDS011;8435;52.184;5.406;2022-09-30T05:15:06;5.87;;;5.00;;
16642;SDS011;8435;52.184;5.406;2022-09-30T05:17:38;5.40;;;4.93;;
16642;SDS011;8435;52.184;5.406;2022-09-30T05:20:05;5.00;;;4.57;;
16642;SDS011;8435;52.184;5.406;2022-09-30T05:22:34;13.00;;;5.03;;
16642;SDS011;8435;52.184;5.406;2022-09-30T05:25:11;5.67;;;5.17;;
16642;SDS011;8435;52.184;5.406;2022-09-30T05:27:38;6.00;;;4.87;;
16642;SDS011;8435;52.184;5.406;2022-09-30T05:30:05;5.83;;;5.30;;
16642;SDS011;8435;52.184;5.406;2022-09-30T05:32:40;5.93;;;5.40;;
16642;SDS011;8435;52.184;5.406;2022-09-30T05:35:12;6.00;;;5.40;;
16642;SDS011;8435;52.184;5.406;2022-09-30T05:37:39;6.33;;;5.73;;
16642;SDS011;8435;52.184;5.406;2022-09-30T05:40:07;7.03;;;5.90;;
16642;SDS011;8435;52.184;5.406;2022-09-30T05:42:34;8.90;;;6.20;;
16642;SDS011;8435;52.184;5.406;2022-09-30T05:45:02;6.53;;;5.90;;
16642;SDS011;8435;52.184;5.406;2022-09-30T05:47:30;7.33;;;5.17;;
16642;SDS011;8435;52.184;5.406;2022-09-30T05:50:02;7.47;;;5.93;;
16642;SDS011;8435;52.184;5.406;2022-09-30T05:52:29;6.73;;;6.13;;
16642;SDS011;8435;52.184;5.406;2022-09-30T05:54:57;13.30;;;11.10;;
16642;SDS011;8435;52.184;5.406;2022-09-30T05:57:25;11.43;;;9.97;;
16642;SDS011;8435;52.184;5.406;2022-09-30T05:59:52;8.03;;;6.70;;
16642;SDS011;8435;52.184;5.406;2022-09-30T06:02:19;6.97;;;6.27;;
16642;SDS011;8435;52.184;5.406;2022-09-30T06:04:46;6.07;;;5.47;;
16642;SDS011;8435;52.184;5.406;2022-09-30T06:07:17;7.53;;;6.30;;
16642;SDS011;8435;52.184;5.406;2022-09-30T06:09:46;6.30;;;5.70;;
16642;SDS011;8435;52.184;5.406;2022-09-30T06:12:13;5.83;;;5.33;;
16642;SDS011;8435;52.184;5.406;2022-09-30T06:14:40;10.63;;;8.93;;
16642;SDS011;8435;52.184;5.406;2022-09-30T06:17:07;5.77;;;5.27;;
16642;SDS011;8435;52.184;5.406;2022-09-30T06:19:34;6.47;;;5.40;;
16642;SDS011;8435;52.184;5.406;2022-09-30T06:22:04;7.03;;;5.70;;
16642;SDS011;8435;52.184;5.406;2022-09-30T06:24:49;5.97;;;5.37;;
16642;SDS011;8435;52.184;5.406;2022-09-30T06:27:24;5.73;;;5.13;;
16642;SDS011;8435;52.184;5.406;2022-09-30T06:29:54;7.13;;;5.63;;
16642;SDS011;8435;52.184;5.406;2022-09-30T06:32:21;5.37;;;4.87;;
16642;SDS011;8435;52.184;5.406;2022-09-30T06:34:51;7.20;;;5.87;;
16642;SDS011;8435;52.184;5.406;2022-09-30T06:37:20;5.37;;;4.87;;
16642;SDS011;8435;52.184;5.406;2022-09-30T06:39:49;10.63;;;9.53;;
16642;SDS011;8435;52.184;5.406;2022-09-30T06:42:31;20.27;;;17.23;;
16642;SDS011;8435;52.184;5.406;2022-09-30T06:44:58;8.20;;;7.20;;
16642;SDS011;8435;52.184;5.406;2022-09-30T06:47:25;7.27;;;6.57;;
16642;SDS011;8435;52.184;5.406;2022-09-30T06:49:52;6.67;;;6.07;;
16642;SDS011;8435;52.184;5.406;2022-09-30T06:52:23;7.87;;;6.30;;
16642;SDS011;8435;52.184;5.406;2022-09-30T06:54:52;7.00;;;5.70;;
16642;SDS011;8435;52.184;5.406;2022-09-30T06:57:20;7.53;;;6.03;;
16642;SDS011;8435;52.184;5.406;2022-09-30T06:59:49;6.77;;;6.17;;
16642;SDS011;8435;52.184;5.406;2022-09-30T07:02:18;7.33;;;5.77;;
16642;SDS011;8435;52.184;5.406;2022-09-30T07:04:45;7.27;;;6.57;;
16642;SDS011;8435;52.184;5.406;2022-09-30T07:07:13;7.23;;;6.50;;
16642;SDS011;8435;52.184;5.406;2022-09-30T07:09:41;13.87;;;11.80;;
16642;SDS011;8435;52.184;5.406;2022-09-30T07:12:18;10.80;;;9.63;;
16642;SDS011;8435;52.184;5.406;2022-09-30T07:14:53;8.83;;;7.93;;
16642;SDS011;8435;52.184;5.406;2022-09-30T07:17:21;8.13;;;7.33;;
16642;SDS011;8435;52.184;5.406;2022-09-30T07:19:48;8.83;;;7.27;;
16642;SDS011;8435;52.184;5.406;2022-09-30T07:22:16;9.00;;;8.10;;
16642;SDS011;8435;52.184;5.406;2022-09-30T07:24:56;9.57;;;8.13;;
16642;SDS011;8435;52.184;5.406;2022-09-30T07:27:28;10.20;;;9.10;;
16642;SDS011;8435;52.184;5.406;2022-09-30T07:29:58;10.67;;;9.50;;
16642;SDS011;8435;52.184;5.406;2022-09-30T07:32:28;13.10;;;10.07;;
16642;SDS011;8435;52.184;5.406;2022-09-30T07:34:55;10.70;;;9.77;;
16642;SDS011;8435;52.184;5.406;2022-09-30T07:37:22;10.70;;;9.70;;
16642;SDS011;8435;52.184;5.406;2022-09-30T07:39:50;11.17;;;9.93;;
16642;SDS011;8435;52.184;5.406;2022-09-30T07:42:20;10.47;;;9.47;;
16642;SDS011;8435;52.184;5.406;2022-09-30T07:44:49;10.33;;;9.27;;
16642;SDS011;8435;52.184;5.406;2022-09-30T07:47:17;11.80;;;10.70;;
16642;SDS011;8435;52.184;5.406;2022-09-30T07:49:45;11.13;;;10.13;;
16642;SDS011;8435;52.184;5.406;2022-09-30T07:52:12;11.67;;;10.57;;
16642;SDS011;8435;52.184;5.406;2022-09-30T07:54:48;11.43;;;10.33;;
16642;SDS011;8435;52.184;5.406;2022-09-30T07:57:15;11.90;;;10.80;;
16642;SDS011;8435;52.184;5.406;2022-09-30T07:59:42;12.33;;;11.23;;
16642;SDS011;8435;52.184;5.406;2022-09-30T08:02:13;12.77;;;11.57;;
16642;SDS011;8435;52.184;5.406;2022-09-30T08:04:43;11.77;;;10.80;;
16642;SDS011;8435;52.184;5.406;2022-09-30T08:07:11;13.57;;;12.47;;
16642;SDS011;8435;52.184;5.406;2022-09-30T08:09:39;14.97;;;13.57;;
16642;SDS011;8435;52.184;5.406;2022-09-30T08:12:06;15.70;;;14.20;;
16642;SDS011;8435;52.184;5.406;2022-09-30T08:14:33;15.37;;;13.87;;
16642;SDS011;8435;52.184;5.406;2022-09-30T08:17:00;15.67;;;14.27;;
16642;SDS011;8435;52.184;5.406;2022-09-30T08:19:29;15.07;;;13.77;;
16642;SDS011;8435;52.184;5.406;2022-09-30T08:21:57;16.07;;;14.63;;
16642;SDS011;8435;52.184;5.406;2022-09-30T08:24:25;13.17;;;12.07;;
16642;SDS011;8435;52.184;5.406;2022-09-30T08:26:52;14.23;;;12.83;;
16642;SDS011;8435;52.184;5.406;2022-09-30T08:29:19;13.07;;;11.97;;
16642;SDS011;8435;52.184;5.406;2022-09-30T08:31:47;12.87;;;11.73;;
16642;SDS011;8435;52.184;5.406;2022-09-30T08:34:15;12.97;;;11.67;;
16642;SDS011;8435;52.184;5.406;2022-09-30T08:36:44;10.73;;;9.83;;
16642;SDS011;8435;52.184;5.406;2022-09-30T08:39:11;10.60;;;9.70;;
16642;SDS011;8435;52.184;5.406;2022-09-30T08:41:43;10.87;;;9.87;;
16642;SDS011;8435;52.184;5.406;2022-09-30T08:44:21;10.23;;;9.33;;
16642;SDS011;8435;52.184;5.406;2022-09-30T08:46:59;11.07;;;10.07;;
16642;SDS011;8435;52.184;5.406;2022-09-30T08:49:36;8.80;;;8.13;;
16642;SDS011;8435;52.184;5.406;2022-09-30T08:52:12;9.50;;;8.60;;
16642;SDS011;8435;52.184;5.406;2022-09-30T08:54:43;9.45;;;8.73;;
16642;SDS011;8435;52.184;5.406;2022-09-30T08:57:13;8.93;;;8.20;;
16642;SDS011;8435;52.184;5.406;2022-09-30T08:59:42;9.23;;;8.43;;
16642;SDS011;8435;52.184;5.406;2022-09-30T09:02:14;9.15;;;8.35;;
16642;SDS011;8435;52.184;5.406;2022-09-30T09:04:45;6.15;;;5.65;;
16642;SDS011;8435;52.184;5.406;2022-09-30T09:07:18;5.90;;;5.40;;
16642;SDS011;8435;52.184;5.406;2022-09-30T09:09:55;6.25;;;5.45;;
16642;SDS011;8435;52.184;5.406;2022-09-30T09:12:32;4.40;;;4.00;;
16642;SDS011;8435;52.184;5.406;2022-09-30T09:15:11;4.63;;;4.23;;
16642;SDS011;8435;52.184;5.406;2022-09-30T09:17:52;5.13;;;3.70;;
16642;SDS011;8435;52.184;5.406;2022-09-30T09:20:40;4.00;;;3.63;;
16642;SDS011;8435;52.184;5.406;2022-09-30T09:23:13;3.77;;;3.47;;
16642;SDS011;8435;52.184;5.406;2022-09-30T09:25:40;4.17;;;3.80;;
16642;SDS011;8435;52.184;5.406;2022-09-30T09:28:12;4.03;;;3.73;;
16642;SDS011;8435;52.184;5.406;2022-09-30T09:30:48;3.70;;;3.43;;
16642;SDS011;8435;52.184;5.406;2022-09-30T09:33:31;3.80;;;3.50;;
16642;SDS011;8435;52.184;5.406;2022-09-30T09:36:04;3.70;;;3.40;;
16642;SDS011;8435;52.184;5.406;2022-09-30T09:38:43;3.83;;;3.47;;
16642;SDS011;8435;52.184;5.406;2022-09-30T09:41:30;4.23;;;3.83;;
16642;SDS011;8435;52.184;5.406;2022-09-30T09:44:05;3.70;;;3.40;;
16642;SDS011;8435;52.184;5.406;2022-09-30T09:46:39;4.10;;;3.80;;
16642;SDS011;8435;52.184;5.406;2022-09-30T09:49:20;4.00;;;3.70;;
16642;SDS011;8435;52.184;5.406;2022-09-30T09:51:58;4.50;;;4.10;;
16642;SDS011;8435;52.184;5.406;2022-09-30T09:54:43;4.07;;;3.77;;
16642;SDS011;8435;52.184;5.406;2022-09-30T09:57:22;4.80;;;4.40;;
16642;SDS011;8435;52.184;5.406;2022-09-30T09:59:55;4.27;;;3.97;;
16642;SDS011;8435;52.184;5.406;2022-09-30T10:02:24;5.03;;;4.63;;
16642;SDS011;8435;52.184;5.406;2022-09-30T10:04:52;4.80;;;4.40;;
16642;SDS011;8435;52.184;5.406;2022-09-30T10:07:25;12.43;;;11.33;;
16642;SDS011;8435;52.184;5.406;2022-09-30T10:10:06;6.83;;;6.23;;
16642;SDS011;8435;52.184;5.406;2022-09-30T10:12:41;5.47;;;5.07;;
16642;SDS011;8435;52.184;5.406;2022-09-30T10:15:13;5.20;;;4.70;;
16642;SDS011;8435;52.184;5.406;2022-09-30T10:17:49;4.93;;;4.43;;
16642;SDS011;8435;52.184;5.406;2022-09-30T10:20:23;5.17;;;4.77;;
16642;SDS011;8435;52.184;5.406;2022-09-30T10:23:01;5.03;;;4.50;;
16642;SDS011;8435;52.184;5.406;2022-09-30T10:25:35;4.87;;;4.47;;
16642;SDS011;8435;52.184;5.406;2022-09-30T10:28:03;5.20;;;4.80;;
16642;SDS011;8435;52.184;5.406;2022-09-30T10:30:45;4.72;;;4.32;;
16642;SDS011;8435;52.184;5.406;2022-09-30T10:33:17;4.88;;;4.47;;
16642;SDS011;8435;52.184;5.406;2022-09-30T10:38:44;4.30;;;3.63;;
16642;SDS011;8435;52.184;5.406;2022-09-30T10:41:24;3.93;;;3.63;;
16642;SDS011;8435;52.184;5.406;2022-09-30T10:43:53;4.45;;;4.05;;
16642;SDS011;8435;52.184;5.406;2022-09-30T10:46:23;3.33;;;3.00;;
16642;SDS011;8435;52.184;5.406;2022-09-30T10:48:53;3.20;;;2.90;;
16642;SDS011;8435;52.184;5.406;2022-09-30T10:51:24;2.70;;;2.50;;
16642;SDS011;8435;52.184;5.406;2022-09-30T10:53:53;3.03;;;2.80;;
16642;SDS011;8435;52.184;5.406;2022-09-30T10:59:29;5.38;;;3.28;;
16642;SDS011;8435;52.184;5.406;2022-09-30T11:02:03;3.00;;;2.80;;
16642;SDS011;8435;52.184;5.406;2022-09-30T11:04:42;2.40;;;2.30;;
16642;SDS011;8435;52.184;5.406;2022-09-30T11:07:14;2.88;;;2.67;;
16642;SDS011;8435;52.184;5.406;2022-09-30T11:09:52;3.35;;;2.80;;
16642;SDS011;8435;52.184;5.406;2022-09-30T11:12:26;2.47;;;2.37;;
16642;SDS011;8435;52.184;5.406;2022-09-30T11:15:00;2.55;;;2.45;;
16642;SDS011;8435;52.184;5.406;2022-09-30T11:17:32;2.13;;;2.03;;
16642;SDS011;8435;52.184;5.406;2022-09-30T11:20:11;2.20;;;2.10;;
16642;SDS011;8435;52.184;5.406;2022-09-30T11:22:48;1.88;;;1.75;;
16642;SDS011;8435;52.184;5.406;2022-09-30T11:25:24;1.90;;;1.60;;
16642;SDS011;8435;52.184;5.406;2022-09-30T11:31:06;2.00;;;1.88;;
16642;SDS011;8435;52.184;5.406;2022-09-30T11:33:42;2.17;;;1.60;;
16642;SDS011;8435;52.184;5.406;2022-09-30T11:36:21;1.88;;;1.52;;
16642;SDS011;8435;52.184;5.406;2022-09-30T11:38:58;3.22;;;1.70;;
16642;SDS011;8435;52.184;5.406;2022-09-30T11:41:36;2.20;;;1.52;;
16642;SDS011;8435;52.184;5.406;2022-09-30T11:44:13;1.65;;;1.55;;
16642;SDS011;8435;52.184;5.406;2022-09-30T11:50:19;1.52;;;1.42;;
16642;SDS011;8435;52.184;5.406;2022-09-30T11:52:56;4.00;;;2.08;;
16642;SDS011;8435;52.184;5.406;2022-09-30T11:55:41;1.92;;;1.73;;
16642;SDS011;8435;52.184;5.406;2022-09-30T11:58:15;2.35;;;1.70;;
16642;SDS011;8435;52.184;5.406;2022-09-30T12:00:46;2.40;;;2.20;;
16642;SDS011;8435;52.184;5.406;2022-09-30T12:03:18;2.15;;;1.75;;
16642;SDS011;8435;52.184;5.406;2022-09-30T12:05:52;1.65;;;1.58;;
16642;SDS011;8435;52.184;5.406;2022-09-30T12:08:26;2.22;;;2.08;;
16642;SDS011;8435;52.184;5.406;2022-09-30T12:10:57;2.90;;;1.95;;
16642;SDS011;8435;52.184;5.406;2022-09-30T12:13:28;1.85;;;1.65;;
16642;SDS011;8435;52.184;5.406;2022-09-30T12:15:57;2.22;;;1.70;;
16642;SDS011;8435;52.184;5.406;2022-09-30T12:18:29;2.05;;;1.80;;
16642;SDS011;8435;52.184;5.406;2022-09-30T12:21:00;21.02;;;13.32;;
16642;SDS011;8435;52.184;5.406;2022-09-30T12:23:35;4.22;;;3.80;;
16642;SDS011;8435;52.184;5.406;2022-09-30T12:26:07;2.90;;;2.17;;
16642;SDS011;8435;52.184;5.406;2022-09-30T12:28:42;7.07;;;2.10;;
16642;SDS011;8435;52.184;5.406;2022-09-30T12:34:32;1.80;;;1.40;;
16642;SDS011;8435;52.184;5.406;2022-09-30T12:37:19;2.72;;;1.65;;
16642;SDS011;8435;52.184;5.406;2022-09-30T12:40:06;1.53;;;1.43;;
16642;SDS011;8435;52.184;5.406;2022-09-30T12:42:59;1.67;;;1.57;;
16642;SDS011;8435;52.184;5.406;2022-09-30T12:46:00;1.63;;;1.40;;
16642;SDS011;8435;52.184;5.406;2022-09-30T12:48:43;1.20;;;1.10;;
16642;SDS011;8435;52.184;5.406;2022-09-30T12:51:21;1.40;;;1.30;;
16642;SDS011;8435;52.184;5.406;2022-09-30T12:53:55;1.48;;;1.42;;
16642;SDS011;8435;52.184;5.406;2022-09-30T12:56:28;1.38;;;1.17;;
16642;SDS011;8435;52.184;5.406;2022-09-30T12:58:57;2.10;;;2.00;;
16642;SDS011;8435;52.184;5.406;2022-09-30T13:01:24;1.95;;;1.85;;
16642;SDS011;8435;52.184;5.406;2022-09-30T13:04:08;1.83;;;1.65;;
16642;SDS011;8435;52.184;5.406;2022-09-30T13:09:54;2.97;;;2.13;;
16642;SDS011;8435;52.184;5.406;2022-09-30T13:12:41;1.80;;;1.70;;
16642;SDS011;8435;52.184;5.406;2022-09-30T13:15:37;2.33;;;2.10;;
16642;SDS011;8435;52.184;5.406;2022-09-30T13:21:16;2.28;;;2.08;;
16642;SDS011;8435;52.184;5.406;2022-09-30T13:23:50;2.58;;;2.38;;
16642;SDS011;8435;52.184;5.406;2022-09-30T13:26:35;2.72;;;2.63;;
16642;SDS011;8435;52.184;5.406;2022-09-30T13:32:29;4.25;;;3.88;;
16642;SDS011;8435;52.184;5.406;2022-09-30T13:34:57;3.60;;;3.30;;
16642;SDS011;8435;52.184;5.406;2022-09-30T13:37:37;4.10;;;3.40;;
16642;SDS011;8435;52.184;5.406;2022-09-30T13:40:13;3.97;;;3.13;;
16642;SDS011;8435;52.184;5.406;2022-09-30T13:42:50;3.50;;;3.15;;
16642;SDS011;8435;52.184;5.406;2022-09-30T13:45:22;3.78;;;3.40;;
16642;SDS011;8435;52.184;5.406;2022-09-30T13:47:58;4.32;;;3.80;;
16642;SDS011;8435;52.184;5.406;2022-09-30T13:50:36;4.63;;;3.90;;
16642;SDS011;8435;52.184;5.406;2022-09-30T13:53:15;3.85;;;3.55;;
16642;SDS011;8435;52.184;5.406;2022-09-30T13:55:47;3.78;;;3.47;;
16642;SDS011;8435;52.184;5.406;2022-09-30T13:58:28;3.50;;;3.13;;
16642;SDS011;8435;52.184;5.406;2022-09-30T14:01:28;2.83;;;2.20;;
16642;SDS011;8435;52.184;5.406;2022-09-30T14:04:12;2.65;;;2.08;;
16642;SDS011;8435;52.184;5.406;2022-09-30T14:07:12;2.33;;;2.13;;
16642;SDS011;8435;52.184;5.406;2022-09-30T14:09:53;1.77;;;1.67;;
16642;SDS011;8435;52.184;5.406;2022-09-30T14:12:49;2.07;;;1.87;;
16642;SDS011;8435;52.184;5.406;2022-09-30T14:18:37;1.97;;;1.27;;
16642;SDS011;8435;52.184;5.406;2022-09-30T14:21:29;1.60;;;1.50;;
16642;SDS011;8435;52.184;5.406;2022-09-30T14:24:03;1.95;;;1.70;;
16642;SDS011;8435;52.184;5.406;2022-09-30T14:26:57;2.33;;;1.23;;
16642;SDS011;8435;52.184;5.406;2022-09-30T14:29:31;1.67;;;1.57;;
16642;SDS011;8435;52.184;5.406;2022-09-30T14:32:20;1.58;;;1.48;;
16642;SDS011;8435;52.184;5.406;2022-09-30T14:34:53;2.60;;;1.73;;
16642;SDS011;8435;52.184;5.406;2022-09-30T14:37:23;2.13;;;1.93;;
16642;SDS011;8435;52.184;5.406;2022-09-30T14:39:53;1.60;;;1.50;;
16642;SDS011;8435;52.184;5.406;2022-09-30T14:42:23;1.43;;;1.33;;
16642;SDS011;8435;52.184;5.406;2022-09-30T14:44:54;1.75;;;1.50;;
16642;SDS011;8435;52.184;5.406;2022-09-30T14:47:39;2.90;;;1.70;;
16642;SDS011;8435;52.184;5.406;2022-09-30T14:50:13;1.77;;;1.67;;
16642;SDS011;8435;52.184;5.406;2022-09-30T14:52:47;1.67;;;1.58;;
16642;SDS011;8435;52.184;5.406;2022-09-30T14:55:20;3.10;;;1.50;;
16642;SDS011;8435;52.184;5.406;2022-09-30T14:57:51;1.80;;;1.70;;
16642;SDS011;8435;52.184;5.406;2022-09-30T15:00:21;2.08;;;1.60;;
16642;SDS011;8435;52.184;5.406;2022-09-30T15:02:54;2.03;;;1.92;;
16642;SDS011;8435;52.184;5.406;2022-09-30T15:05:38;2.38;;;2.20;;
16642;SDS011;8435;52.184;5.406;2022-09-30T15:08:09;2.80;;;2.13;;
16642;SDS011;8435;52.184;5.406;2022-09-30T15:10:36;2.17;;;2.00;;
16642;SDS011;8435;52.184;5.406;2022-09-30T15:13:05;2.45;;;2.25;;
16642;SDS011;8435;52.184;5.406;2022-09-30T15:15:35;2.80;;;2.60;;
16642;SDS011;8435;52.184;5.406;2022-09-30T15:18:22;2.47;;;2.10;;
16642;SDS011;8435;52.184;5.406;2022-09-30T15:20:57;2.03;;;1.87;;
16642;SDS011;8435;52.184;5.406;2022-09-30T15:23:48;2.40;;;2.20;;
16642;SDS011;8435;52.184;5.406;2022-09-30T15:29:51;3.03;;;2.43;;
16642;SDS011;8435;52.184;5.406;2022-09-30T15:32:19;2.37;;;2.17;;
16642;SDS011;8435;52.184;5.406;2022-09-30T15:34:51;2.90;;;2.50;;
16642;SDS011;8435;52.184;5.406;2022-09-30T15:37:30;2.40;;;2.20;;
16642;SDS011;8435;52.184;5.406;2022-09-30T15:40:12;2.83;;;2.63;;
16642;SDS011;8435;52.184;5.406;2022-09-30T15:42:59;2.70;;;2.50;;
16642;SDS011;8435;52.184;5.406;2022-09-30T15:45:28;3.20;;;2.90;;
16642;SDS011;8435;52.184;5.406;2022-09-30T15:47:58;3.20;;;2.90;;
16642;SDS011;8435;52.184;5.406;2022-09-30T15:50:40;3.20;;;2.90;;
16642;SDS011;8435;52.184;5.406;2022-09-30T15:53:13;3.30;;;2.70;;
16642;SDS011;8435;52.184;5.406;2022-09-30T15:55:43;3.70;;;2.70;;
16642;SDS011;8435;52.184;5.406;2022-09-30T15:58:33;3.60;;;3.30;;
16642;SDS011;8435;52.184;5.406;2022-09-30T16:03:49;3.00;;;2.80;;
16642;SDS011;8435;52.184;5.406;2022-09-30T16:06:21;3.37;;;3.03;;
16642;SDS011;8435;52.184;5.406;2022-09-30T16:08:51;3.87;;;3.13;;
16642;SDS011;8435;52.184;5.406;2022-09-30T16:11:24;3.47;;;3.07;;
16642;SDS011;8435;52.184;5.406;2022-09-30T16:13:52;3.60;;;2.50;;